Wetterdaten: Woche 25.03.02 - 31.03.02 (KW13)
Datum Zeit Temperatur Luftfeuchte Luftdruck Regenmenge Wind Richtung Taupunkt Windchill
25.03.2002 00:00 -0.4 C 72 % 1028.5 hPa 0.0 l/m 0.2 km/h (0 Bft) N -4.9 C -0.4 C
25.03.2002 01:00 -0.9 C 74 % 1028.3 hPa 0.0 l/m 0.3 km/h (0 Bft) N-NO -4.9 C -0.9 C
25.03.2002 02:00 -1.0 C 74 % 1028.3 hPa 0.0 l/m 0.6 km/h (0 Bft) N -5.1 C -1.1 C
25.03.2002 03:00 -2.2 C 79 % 1027.3 hPa 0.0 l/m 1.3 km/h (1 Bft) O-SO -5.3 C -2.4 C
25.03.2002 04:00 -2.0 C 81 % 1027.2 hPa 0.0 l/m 0.5 km/h (0 Bft) O-NO -4.8 C -2.1 C
25.03.2002 05:00 -1.2 C 79 % 1027.2 hPa 0.0 l/m 1.2 km/h (1 Bft) O -4.3 C -1.5 C
25.03.2002 06:00 -0.5 C 77 % 1027.2 hPa 0.0 l/m 0.0 km/h (0 Bft) N -4.1 C -0.5 C
25.03.2002 07:00 -0.2 C 74 % 1027.2 hPa 0.0 l/m 0.9 km/h (0 Bft) NO -4.3 C -0.3 C
25.03.2002 08:00 0.7 C 70 % 1027.2 hPa 0.0 l/m 3.7 km/h (1 Bft) O-NO -4.2 C -0.2 C
25.03.2002 09:00 2.5 C 64 % 1027.2 hPa 0.0 l/m 10.1 km/h (2 Bft) O-SO -3.7 C 0.2 C
25.03.2002 10:00 4.4 C 53 % 1027.2 hPa 0.0 l/m 19.2 km/h (3 Bft) O -4.3 C 0.5 C
25.03.2002 11:00 5.1 C 51 % 1027.2 hPa 0.0 l/m 20.1 km/h (4 Bft) O-SO -4.2 C 1.4 C
25.03.2002 12:00 5.6 C 48 % 1026.2 hPa 0.0 l/m 16.3 km/h (3 Bft) O-SO -4.6 C 2.5 C
25.03.2002 13:00 6.2 C 42 % 1026.2 hPa 0.0 l/m 11.3 km/h (2 Bft) O -5.6 C 4.2 C
25.03.2002 14:00 6.7 C 42 % 1025.6 hPa 0.0 l/m 18.3 km/h (3 Bft) O-SO -5.3 C 3.7 C
25.03.2002 15:00 6.2 C 43 % 1025.1 hPa 0.0 l/m 13.0 km/h (3 Bft) O-SO -5.5 C 3.8 C
25.03.2002 16:00 5.5 C 44 % 1025.1 hPa 0.0 l/m 11.5 km/h (2 Bft) O-SO -5.7 C 3.3 C
25.03.2002 17:00 5.1 C 46 % 1025.1 hPa 0.0 l/m 8.0 km/h (2 Bft) O -5.5 C 3.6 C
25.03.2002 18:00 4.0 C 48 % 1025.7 hPa 0.0 l/m 2.1 km/h (1 Bft) O -6.1 C 3.6 C
25.03.2002 19:00 3.1 C 51 % 1026.7 hPa 0.0 l/m 0.1 km/h (0 Bft) N -5.9 C 3.1 C
25.03.2002 20:00 2.3 C 54 % 1027.3 hPa 0.0 l/m 1.2 km/h (1 Bft) N-NO -6.0 C 2.1 C
25.03.2002 21:00 1.0 C 62 % 1027.3 hPa 0.0 l/m 0.5 km/h (0 Bft) O -5.6 C 1.0 C
25.03.2002 22:00 0.4 C 62 % 1027.3 hPa 0.0 l/m 0.3 km/h (0 Bft) N -5.9 C 0.4 C
25.03.2002 23:00 -0.2 C 65 % 1027.3 hPa 0.0 l/m 0.5 km/h (0 Bft) N-NO -6.0 C -0.2 C
26.03.2002 00:00 -1.5 C 71 % 1027.1 hPa 0.0 l/m 0.1 km/h (0 Bft) N -6.1 C -1.5 C
26.03.2002 01:00 -2.5 C 77 % 1027.0 hPa 0.0 l/m 0.1 km/h (0 Bft) N -6.1 C -2.5 C
26.03.2002 02:00 -3.2 C 80 % 1026.3 hPa 0.0 l/m 0.1 km/h (0 Bft) O -6.2 C -3.2 C
26.03.2002 03:00 -3.7 C 82 % 1026.3 hPa 0.0 l/m 0.3 km/h (0 Bft) O-SO -6.3 C -3.7 C
26.03.2002 04:00 -4.0 C 84 % 1026.3 hPa 0.0 l/m 1.0 km/h (0 Bft) O -6.3 C -4.3 C
26.03.2002 05:00 -4.6 C 86 % 1026.3 hPa 0.0 l/m 0.0 km/h (0 Bft) N -6.5 C -4.6 C
26.03.2002 06:00 -4.8 C 87 % 1026.9 hPa 0.0 l/m 0.3 km/h (0 Bft) O-SO -6.7 C -4.8 C
26.03.2002 07:00 -3.3 C 88 % 1027.3 hPa 0.0 l/m 0.0 km/h (0 Bft) N -5.1 C -3.3 C
26.03.2002 08:00 -1.0 C 78 % 1027.3 hPa 0.0 l/m 0.9 km/h (0 Bft) O -4.3 C -1.2 C
26.03.2002 09:00 1.4 C 68 % 1027.3 hPa 0.0 l/m 5.3 km/h (1 Bft) O-SO -3.8 C -0.0 C
26.03.2002 10:00 3.3 C 62 % 1027.3 hPa 0.0 l/m 5.9 km/h (2 Bft) O-SO -3.2 C 2.0 C
26.03.2002 11:00 5.3 C 54 % 1027.3 hPa 0.0 l/m 3.1 km/h (1 Bft) O-NO -3.3 C 4.8 C
26.03.2002 12:00 7.1 C 50 % 1026.3 hPa 0.0 l/m 13.2 km/h (3 Bft) O-SO -2.7 C 4.8 C
26.03.2002 13:00 7.7 C 46 % 1026.3 hPa 0.0 l/m 9.6 km/h (2 Bft) O-SO -3.3 C 6.2 C
26.03.2002 14:00 8.3 C 46 % 1025.5 hPa 0.0 l/m 17.7 km/h (3 Bft) O-SO -2.6 C 5.6 C
26.03.2002 15:00 8.4 C 45 % 1025.3 hPa 0.0 l/m 19.4 km/h (3 Bft) O-SO -2.9 C 5.4 C
26.03.2002 16:00 8.0 C 45 % 1025.3 hPa 0.0 l/m 14.9 km/h (3 Bft) O-SO -3.2 C 5.6 C
26.03.2002 17:00 7.2 C 47 % 1025.3 hPa 0.0 l/m 12.5 km/h (3 Bft) O-SO -3.3 C 5.0 C
26.03.2002 18:00 5.2 C 51 % 1024.8 hPa 0.0 l/m 4.8 km/h (1 Bft) O-SO -4.1 C 4.3 C
26.03.2002 19:00 2.9 C 59 % 1025.3 hPa 0.0 l/m 0.0 km/h (0 Bft) N -4.4 C 2.9 C
26.03.2002 20:00 1.4 C 68 % 1025.3 hPa 0.0 l/m 2.5 km/h (1 Bft) O -4.0 C 1.2 C
26.03.2002 21:00 1.0 C 72 % 1025.8 hPa 0.0 l/m 0.1 km/h (0 Bft) N -3.4 C 1.0 C
26.03.2002 22:00 1.4 C 69 % 1026.1 hPa 0.0 l/m 0.4 km/h (0 Bft) N-NO -3.7 C 1.4 C
26.03.2002 23:00 0.6 C 71 % 1026.3 hPa 0.0 l/m 0.2 km/h (0 Bft) N-NO -4.0 C 0.6 C
27.03.2002 00:00 -0.6 C 77 % 1026.3 hPa 0.0 l/m 0.0 km/h (0 Bft) N -4.2 C -0.6 C
27.03.2002 01:00 -1.3 C 79 % 1026.3 hPa 0.0 l/m 0.1 km/h (0 Bft) N -4.5 C -1.3 C
27.03.2002 02:00 -1.8 C 79 % 1026.3 hPa 0.0 l/m 0.0 km/h (0 Bft) N -5.0 C -1.8 C
27.03.2002 03:00 -2.6 C 82 % 1026.1 hPa 0.0 l/m 2.8 km/h (1 Bft) O-SO -5.2 C -3.3 C
27.03.2002 04:00 -3.4 C 84 % 1025.4 hPa 0.0 l/m 2.5 km/h (1 Bft) O-SO -5.7 C -4.0 C
27.03.2002 05:00 -3.8 C 86 % 1025.6 hPa 0.0 l/m 2.2 km/h (1 Bft) O-SO -5.8 C -4.3 C
27.03.2002 06:00 -3.7 C 86 % 1026.2 hPa 0.0 l/m 0.8 km/h (0 Bft) O -5.8 C -3.7 C
27.03.2002 07:00 -2.6 C 84 % 1026.3 hPa 0.0 l/m 0.5 km/h (0 Bft) O -5.0 C -2.6 C
27.03.2002 08:00 -0.1 C 74 % 1026.3 hPa 0.0 l/m 4.4 km/h (1 Bft) O-SO -4.2 C -1.2 C
27.03.2002 09:00 1.9 C 66 % 1026.3 hPa 0.0 l/m 8.2 km/h (2 Bft) O-SO -3.7 C -0.2 C
27.03.2002 10:00 4.6 C 60 % 1026.3 hPa 0.0 l/m 13.9 km/h (3 Bft) O-SO -2.5 C 1.5 C
27.03.2002 11:00 6.7 C 54 % 1026.3 hPa 0.0 l/m 17.2 km/h (3 Bft) SO -1.8 C 3.7 C
27.03.2002 12:00 8.1 C 48 % 1026.3 hPa 0.0 l/m 21.3 km/h (4 Bft) SO -2.1 C 4.9 C
27.03.2002 13:00 9.0 C 47 % 1026.3 hPa 0.0 l/m 16.4 km/h (3 Bft) O-SO -1.8 C 6.7 C
27.03.2002 14:00 9.5 C 44 % 1025.7 hPa 0.0 l/m 20.2 km/h (4 Bft) O-SO -2.2 C 6.7 C
27.03.2002 15:00 9.7 C 43 % 1025.6 hPa 0.0 l/m 15.7 km/h (3 Bft) O-SO -2.4 C 7.6 C
27.03.2002 16:00 9.5 C 42 % 1025.3 hPa 0.0 l/m 11.4 km/h (2 Bft) O-SO -2.7 C 7.9 C
27.03.2002 17:00 8.4 C 43 % 1025.3 hPa 0.0 l/m 9.0 km/h (2 Bft) O-SO -3.5 C 7.1 C
27.03.2002 18:00 7.3 C 43 % 1026.0 hPa 0.0 l/m 9.2 km/h (2 Bft) O -4.5 C 5.7 C
27.03.2002 19:00 5.7 C 51 % 1026.3 hPa 0.0 l/m 4.2 km/h (1 Bft) NO -3.7 C 5.1 C
27.03.2002 20:00 4.5 C 55 % 1027.3 hPa 0.0 l/m 5.4 km/h (1 Bft) NO -3.7 C 3.5 C
27.03.2002 21:00 3.4 C 60 % 1027.3 hPa 0.0 l/m 4.6 km/h (1 Bft) NO -3.6 C 2.4 C
27.03.2002 22:00 2.3 C 64 % 1027.3 hPa 0.0 l/m 3.2 km/h (1 Bft) O -3.9 C 1.7 C
27.03.2002 23:00 1.7 C 64 % 1027.3 hPa 0.0 l/m 4.4 km/h (1 Bft) NO -4.4 C 0.6 C
28.03.2002 00:00 1.0 C 65 % 1027.3 hPa 0.0 l/m 3.6 km/h (1 Bft) NO -4.9 C 0.2 C
28.03.2002 01:00 0.1 C 67 % 1027.3 hPa 0.0 l/m 1.4 km/h (1 Bft) NO -5.3 C -0.2 C
28.03.2002 02:00 -0.3 C 68 % 1027.3 hPa 0.0 l/m 1.8 km/h (1 Bft) SO -5.6 C -0.8 C
28.03.2002 03:00 -0.5 C 68 % 1027.3 hPa 0.0 l/m 6.2 km/h (2 Bft) O-SO -5.5 C -2.2 C
28.03.2002 04:00 -1.9 C 76 % 1027.3 hPa 0.0 l/m 3.2 km/h (1 Bft) O-SO -5.6 C -2.8 C
28.03.2002 05:00 -2.7 C 79 % 1027.3 hPa 0.0 l/m 4.0 km/h (1 Bft) O-SO -5.9 C -3.9 C
28.03.2002 06:00 -3.0 C 81 % 1027.3 hPa 0.0 l/m 0.7 km/h (0 Bft) O-SO -5.8 C -3.2 C
28.03.2002 07:00 -0.9 C 80 % 1027.3 hPa 0.0 l/m 0.2 km/h (0 Bft) O-SO -3.9 C -0.9 C
28.03.2002 08:00 2.1 C 63 % 1027.3 hPa 0.0 l/m 10.5 km/h (2 Bft) O-SO -4.2 C -0.6 C
28.03.2002 09:00 4.0 C 59 % 1027.3 hPa 0.0 l/m 10.5 km/h (2 Bft) O-SO -3.4 C 1.5 C
28.03.2002 10:00 6.0 C 55 % 1027.3 hPa 0.0 l/m 17.0 km/h (3 Bft) O-SO -2.4 C 2.7 C
28.03.2002 11:00 8.0 C 51 % 1026.9 hPa 0.0 l/m 17.8 km/h (3 Bft) O-SO -1.6 C 5.1 C
28.03.2002 12:00 9.3 C 47 % 1026.1 hPa 0.0 l/m 19.6 km/h (3 Bft) O-SO -1.5 C 6.5 C
28.03.2002 13:00 10.5 C 43 % 1025.3 hPa 0.0 l/m 20.6 km/h (4 Bft) O-SO -1.5 C 10.1 C
28.03.2002 14:00 11.4 C 40 % 1024.6 hPa 0.0 l/m 19.4 km/h (3 Bft) O-SO -1.7 C 11.4 C
28.03.2002 15:00 11.8 C 39 % 1024.0 hPa 0.0 l/m 21.5 km/h (4 Bft) O-SO -1.7 C 11.8 C
28.03.2002 16:00 11.7 C 38 % 1023.2 hPa 0.0 l/m 21.2 km/h (4 Bft) O-SO -2.2 C 11.7 C
28.03.2002 17:00 11.2 C 39 % 1023.1 hPa 0.0 l/m 21.8 km/h (4 Bft) O-SO -2.2 C 11.2 C
28.03.2002 18:00 9.7 C 42 % 1023.2 hPa 0.0 l/m 5.0 km/h (1 Bft) O -2.7 C 9.3 C
28.03.2002 19:00 8.4 C 43 % 1023.2 hPa 0.0 l/m 1.9 km/h (1 Bft) O -3.4 C 8.1 C
28.03.2002 20:00 7.4 C 47 % 1023.2 hPa 0.0 l/m 1.0 km/h (0 Bft) NO -3.1 C 7.3 C
28.03.2002 21:00 6.5 C 51 % 1023.2 hPa 0.0 l/m 4.8 km/h (1 Bft) N-NO -3.0 C 5.7 C
28.03.2002 22:00 5.6 C 51 % 1023.2 hPa 0.0 l/m 3.5 km/h (1 Bft) NO -3.8 C 5.1 C
28.03.2002 23:00 4.7 C 52 % 1023.2 hPa 0.0 l/m 5.1 km/h (1 Bft) NO -4.3 C 3.8 C
29.03.2002 00:00 3.8 C 55 % 1023.2 hPa 0.0 l/m 3.1 km/h (1 Bft) NO -4.5 C 3.2 C
29.03.2002 01:00 2.5 C 61 % 1022.8 hPa 0.0 l/m 1.6 km/h (1 Bft) O-SO -4.3 C 2.1 C
29.03.2002 02:00 0.7 C 69 % 1023.2 hPa 0.0 l/m 0.4 km/h (0 Bft) O -4.2 C 0.7 C
29.03.2002 03:00 -0.2 C 74 % 1023.2 hPa 0.0 l/m 2.1 km/h (1 Bft) O-SO -4.3 C -0.5 C
29.03.2002 04:00 -1.3 C 80 % 1023.2 hPa 0.0 l/m 1.6 km/h (1 Bft) O-SO -4.3 C -1.6 C
29.03.2002 05:00 -2.2 C 84 % 1023.7 hPa 0.0 l/m 1.4 km/h (1 Bft) O-SO -4.6 C -2.6 C
29.03.2002 06:00 -2.2 C 87 % 1024.2 hPa 0.0 l/m 4.2 km/h (1 Bft) O-SO -4.1 C -3.5 C
29.03.2002 07:00 -0.8 C 88 % 1024.2 hPa 0.0 l/m 0.3 km/h (0 Bft) N -2.5 C -0.9 C
29.03.2002 08:00 1.7 C 77 % 1024.2 hPa 0.0 l/m 0.1 km/h (0 Bft) N -1.9 C 1.7 C
29.03.2002 09:00 4.7 C 62 % 1024.3 hPa 0.0 l/m 2.7 km/h (1 Bft) NW -2.0 C 4.2 C
29.03.2002 10:00 7.8 C 52 % 1024.2 hPa 0.0 l/m 2.2 km/h (1 Bft) W-NW -1.4 C 7.6 C
29.03.2002 11:00 10.5 C 46 % 1023.9 hPa 0.0 l/m 4.6 km/h (1 Bft) NW -0.8 C 10.3 C
29.03.2002 12:00 13.4 C 34 % 1023.0 hPa 0.0 l/m 4.1 km/h (1 Bft) W-NW -2.4 C 13.4 C
29.03.2002 13:00 15.7 C 27 % 1022.2 hPa 0.0 l/m 5.7 km/h (1 Bft) O-SO -3.2 C 15.7 C
29.03.2002 14:00 16.2 C 27 % 1021.6 hPa 0.0 l/m 5.5 km/h (1 Bft) O-SO -2.8 C 16.2 C
29.03.2002 15:00 16.6 C 27 % 1020.8 hPa 0.0 l/m 4.8 km/h (1 Bft) O-SO -2.5 C 16.6 C
29.03.2002 16:00 16.3 C 27 % 1020.1 hPa 0.0 l/m 8.3 km/h (2 Bft) O-SO -2.7 C 16.3 C
29.03.2002 17:00 15.3 C 27 % 1020.1 hPa 0.0 l/m 7.2 km/h (2 Bft) O-SO -3.6 C 15.3 C
29.03.2002 18:00 12.9 C 31 % 1020.1 hPa 0.0 l/m 1.2 km/h (1 Bft) O-SO -3.9 C 12.9 C
29.03.2002 19:00 8.6 C 51 % 1020.1 hPa 0.0 l/m 1.4 km/h (1 Bft) O-SO -1.2 C 8.4 C
29.03.2002 20:00 6.0 C 64 % 1020.6 hPa 0.0 l/m 3.8 km/h (1 Bft) O-SO -0.3 C 5.3 C
29.03.2002 21:00 4.5 C 69 % 1021.1 hPa 0.0 l/m 0.9 km/h (0 Bft) O -0.7 C 4.5 C
29.03.2002 22:00 3.3 C 74 % 1021.1 hPa 0.0 l/m 0.7 km/h (0 Bft) O-SO -0.8 C 3.3 C
29.03.2002 23:00 2.7 C 75 % 1021.1 hPa 0.0 l/m 4.7 km/h (1 Bft) O-SO -1.2 C 1.8 C
30.03.2002 00:00 1.9 C 79 % 1021.1 hPa 0.0 l/m 1.0 km/h (0 Bft) O-SO -1.4 C 1.7 C
30.03.2002 01:00 0.9 C 84 % 1021.5 hPa 0.0 l/m 0.8 km/h (0 Bft) O-SO -1.5 C 0.7 C
30.03.2002 02:00 0.5 C 87 % 1022.2 hPa 0.0 l/m 1.0 km/h (0 Bft) O -1.3 C 0.5 C
30.03.2002 03:00 -0.2 C 90 % 1021.9 hPa 0.0 l/m 0.8 km/h (0 Bft) O-SO -1.6 C -0.2 C
30.03.2002 04:00 -0.5 C 91 % 1022.2 hPa 0.0 l/m 1.0 km/h (0 Bft) O-SO -1.8 C -0.7 C
30.03.2002 05:00 -0.4 C 92 % 1022.2 hPa 0.0 l/m 0.3 km/h (0 Bft) O-SO -1.6 C -0.4 C
30.03.2002 06:00 -0.4 C 92 % 1022.2 hPa 0.0 l/m 2.1 km/h (1 Bft) O-SO -1.5 C -0.9 C
30.03.2002 07:00 0.8 C 90 % 1023.2 hPa 0.0 l/m 0.0 km/h (0 Bft) N -0.6 C 0.8 C
30.03.2002 08:00 2.4 C 85 % 1023.2 hPa 0.0 l/m 0.5 km/h (0 Bft) O-SO 0.1 C 2.4 C
30.03.2002 09:00 3.8 C 77 % 1023.2 hPa 0.0 l/m 5.5 km/h (1 Bft) SO 0.2 C 2.4 C
30.03.2002 10:00 5.2 C 71 % 1023.2 hPa 0.0 l/m 4.5 km/h (1 Bft) O-SO 0.4 C 4.4 C
30.03.2002 11:00 6.6 C 63 % 1023.2 hPa 0.0 l/m 1.0 km/h (0 Bft) S-SO 0.1 C 6.5 C
30.03.2002 12:00 7.7 C 60 % 1023.2 hPa 0.0 l/m 0.0 km/h (0 Bft) N 0.5 C 7.7 C
30.03.2002 13:00 9.7 C 56 % 1022.9 hPa 0.0 l/m 0.0 km/h (0 Bft) N 1.3 C 9.7 C
30.03.2002 14:00 10.5 C 53 % 1022.3 hPa 0.0 l/m 1.3 km/h (1 Bft) O-SO 1.3 C 10.5 C
30.03.2002 15:00 10.3 C 55 % 1022.2 hPa 0.0 l/m 2.5 km/h (1 Bft) O-SO 1.5 C 10.3 C
30.03.2002 16:00 9.5 C 57 % 1022.2 hPa 0.0 l/m 2.9 km/h (1 Bft) SO 1.5 C 9.3 C
30.03.2002 17:00 8.5 C 62 % 1022.1 hPa 0.0 l/m 5.8 km/h (2 Bft) SO 1.5 C 7.7 C
30.03.2002 18:00 7.3 C 67 % 1021.1 hPa 0.0 l/m 6.1 km/h (2 Bft) SO 1.7 C 6.4 C
30.03.2002 19:00 6.2 C 72 % 1022.1 hPa 0.0 l/m 5.1 km/h (1 Bft) O-SO 1.6 C 5.5 C
30.03.2002 20:00 5.2 C 78 % 1022.2 hPa 0.0 l/m 2.6 km/h (1 Bft) O-SO 1.7 C 5.1 C
30.03.2002 21:00 4.3 C 83 % 1022.2 hPa 0.0 l/m 0.2 km/h (0 Bft) O 1.6 C 4.3 C
30.03.2002 22:00 3.6 C 87 % 1022.2 hPa 0.0 l/m 1.1 km/h (0 Bft) O-SO 1.7 C 3.5 C
30.03.2002 23:00 3.4 C 90 % 1022.2 hPa 0.0 l/m 0.0 km/h (0 Bft) N 1.9 C 3.4 C
31.03.2002 00:00 2.9 C 90 % 1022.2 hPa 0.0 l/m 0.0 km/h (0 Bft) N 1.4 C 2.9 C
31.03.2002 01:00 2.7 C 91 % 1021.8 hPa 0.0 l/m 0.5 km/h (0 Bft) O-SO 1.3 C 2.6 C
31.03.2002 03:00 2.0 C 92 % 1021.1 hPa 0.0 l/m 0.0 km/h (0 Bft) N 0.7 C 2.0 C
31.03.2002 04:00 1.1 C 95 % 1021.1 hPa 0.0 l/m 0.7 km/h (0 Bft) O-SO 0.5 C 1.0 C
31.03.2002 05:00 0.1 C 96 % 1021.1 hPa 0.0 l/m 0.2 km/h (0 Bft) O-SO -0.4 C 0.1 C
31.03.2002 06:00 -0.5 C 97 % 1021.1 hPa 0.0 l/m 1.1 km/h (1 Bft) O-SO -0.8 C -0.7 C
31.03.2002 07:00 -0.9 C 98 % 1021.1 hPa 0.0 l/m 0.1 km/h (0 Bft) N -1.2 C -0.9 C
31.03.2002 08:00 0.3 C 100 % 1021.1 hPa 0.0 l/m 0.0 km/h (0 Bft) N 0.3 C 0.3 C
31.03.2002 09:00 2.8 C 96 % 1021.1 hPa 0.0 l/m 1.0 km/h (0 Bft) O-SO 2.3 C 2.6 C
31.03.2002 10:00 6.5 C 77 % 1021.1 hPa 0.0 l/m 8.4 km/h (2 Bft) O-SO 2.7 C 4.9 C
31.03.2002 11:00 10.0 C 60 % 1020.4 hPa 0.0 l/m 10.4 km/h (2 Bft) SO 2.6 C 9.1 C
31.03.2002 12:00 12.9 C 48 % 1019.8 hPa 0.0 l/m 10.1 km/h (2 Bft) SO 2.0 C 12.9 C
31.03.2002 13:00 15.3 C 40 % 1019.0 hPa 0.0 l/m 11.6 km/h (2 Bft) SO 1.8 C 15.3 C
31.03.2002 14:00 16.6 C 35 % 1018.2 hPa 0.0 l/m 8.9 km/h (2 Bft) SO 0.9 C 16.6 C
31.03.2002 15:00 16.1 C 36 % 1018.0 hPa 0.0 l/m 6.7 km/h (2 Bft) NW 0.9 C 16.1 C
31.03.2002 16:00 16.6 C 31 % 1017.0 hPa 0.0 l/m 15.2 km/h (3 Bft) W-NW -0.5 C 16.6 C
31.03.2002 17:00 16.5 C 33 % 1017.0 hPa 0.0 l/m 11.6 km/h (2 Bft) W-NW 0.2 C 16.5 C
31.03.2002 18:00 15.2 C 35 % 1017.0 hPa 0.0 l/m 6.3 km/h (2 Bft) W-NW -0.3 C 15.2 C
31.03.2002 19:00 12.5 C 45 % 1017.0 hPa 0.0 l/m 2.7 km/h (1 Bft) O-SO 0.8 C 12.5 C
31.03.2002 20:00 9.7 C 54 % 1017.0 hPa 0.0 l/m 6.2 km/h (2 Bft) O-SO 0.7 C 9.2 C
31.03.2002 21:00 6.6 C 70 % 1017.0 hPa 0.0 l/m 2.6 km/h (1 Bft) O-SO 1.4 C 6.3 C
31.03.2002 22:00 5.1 C 75 % 1018.0 hPa 0.0 l/m 1.7 km/h (1 Bft) O-SO 1.1 C 5.1 C
31.03.2002 23:00 4.0 C 80 % 1018.0 hPa 0.0 l/m 0.3 km/h (0 Bft) O 0.9 C 4.0 C
Min-Datum _ 26.03.02 31.03.02 31.03.02 - 25.03.02 - 26.03.02 26.03.02
_ Min-Zeit 06:20 16:19 16:04 - 00:34 - 06:20 04:20
Minimum _ -5.1 C 25 % 1017.0 hPa - 0.0 km/h (0 Bft) - -7.1 C -6.3 C
Max-Datum _ 31.03.02 31.03.02 25.03.02 25.03.02 27.03.02 - 31.03.02 31.03.02
_ Max-Zeit 14:40 05:04 00:01 00:01 14:42 - 10:34 14:40
Maximum _ 17.2 C 100 % 1029.3 hPa 0.0 l/m 32.5 km/h
O-SO (5 Bft)
- 3.5 C 17.2 C
Durchschnitt _ 4.3 C 64 % 1024.2 hPa #0.0 l/m 5.3 km/h (1 Bft) O-SO -2.6 C 3.6 C

Durchschnitt Minimum Temp.3.4 C
Durchschnitt Maximum Temp.5.2 C
© Kaiko 2002